Prag, Češka

01:55 PM CET on Studeni 27, 2014 (GMT +0100)
Jenec | Change Station
CLOSE
Current Station
Osobna meteo-postaja
Location: Jenec, Stredocesky Kraj
Visina: 1211 ft
Nearby Weather Stations

Elev 1211 ft 50.09 °N, 14.21 °E | Updated 4 minutes ago

Overcast
Potpuno oblačno
35.6 °F
Feels Like 31 °F
S
6.0
Vjetar Varijabla smjera vjetra Vjetar from JI
Gusts 6.9 mph

Danas
High -- | Low -- °F
--% Chance of Precip.
Jučer
High -- | Low -- °F
Precip. -- u
7:34 AM 4:06 PM
Prva četvrt, 29% visible
Pritisak 29.95 u
Vidljivost 6.2 milja
Oblaci Potpuno oblačno 2000 ft
Subjektivni osjećaj 31 °F
Točka rose 27 °F
Vlažnost 71%
Kiša 0.00 u
Visina snijega Not available.
UV 0 od 12
Pollen Not available.
Kvalitet zraka Not available.
Flu Activity Not available.
METAR LKPR 271230Z 13011KT 9999 OVC020 02/M02 Q1014 NOSIG

More Conditions Fewer Conditions

Pritisak 29.95 u
Vidljivost 6.2 milja
Oblaci Potpuno oblačno 2000 ft
Subjektivni osjećaj 31 °F
Točka rose 27 °F
Vlažnost 71%
Kiša 0.00 u
Visina snijega Not available.
UV 0 od 12
Pollen Not available.
Kvalitet zraka Not available.
Flu Activity Not available.
METAR LKPR 271230Z 13011KT 9999 OVC020 02/M02 Q1014 NOSIG

More Conditions Fewer Conditions

10-Day Weather Forecast

Almanac

Astronomija

Nov. 27, 2014 Izlazak Zalazak
Trenutno vrijeme
Civilni sumrak
Nautički sumrak
Astronomski sumrak
Moon
Duljina trajanja vidljive svjetlosti
Duljina dana
Tomorrow will be .
, % of the Moon is Illuminated

Današnji ekstremi

Country Highs Country Lows

Community

WunderPhotos

Upload Photos

1,773,990 photos uploaded!

WunderBlogs® & News

Nearby

Kvalitet zraka

  Kvalitet zraka AQ Index Zagadjenje
Not available.

Visina snijega

Station Depth Visina

Earthquake Activity

Grad Distance Mag. Time & Date
Minimum magnitude displayed is 2.5.

Coastal Water Temperatures

Mjesto Temperatura

Nearby Weather Stations